sensor_id;sensor_type;location;lat;lon;timestamp;pressure;altitude;pressure_sealevel;temperature;humidity
78483;BME280;67772;50.158;8.658;2023-03-03T00:00:08;100790.81;;;2.67;61.62
78483;BME280;67772;50.158;8.658;2023-03-03T00:02:33;100793.72;;;2.72;61.38
78483;BME280;67772;50.158;8.658;2023-03-03T00:04:58;100799.06;;;2.79;61.05
78483;BME280;67772;50.158;8.658;2023-03-03T00:07:24;100807.53;;;2.74;61.73
78483;BME280;67772;50.158;8.658;2023-03-03T00:09:49;100803.34;;;2.65;61.66
78483;BME280;67772;50.158;8.658;2023-03-03T00:12:22;100807.25;;;2.54;63.08
78483;BME280;67772;50.158;8.658;2023-03-03T00:14:47;100805.88;;;2.58;63.21
78483;BME280;67772;50.158;8.658;2023-03-03T00:17:24;100810.69;;;2.55;63.29
78483;BME280;67772;50.158;8.658;2023-03-03T00:19:50;100803.59;;;2.55;63.13
78483;BME280;67772;50.158;8.658;2023-03-03T00:22:30;100808.50;;;2.58;63.28
78483;BME280;67772;50.158;8.658;2023-03-03T00:27:43;100809.97;;;2.46;64.88
78483;BME280;67772;50.158;8.658;2023-03-03T00:30:19;100817.69;;;2.48;63.91
78483;BME280;67772;50.158;8.658;2023-03-03T00:32:47;100821.28;;;2.47;64.62
78483;BME280;67772;50.158;8.658;2023-03-03T00:35:28;100823.13;;;2.46;64.78
78483;BME280;67772;50.158;8.658;2023-03-03T00:37:59;100825.56;;;2.48;64.67
78483;BME280;67772;50.158;8.658;2023-03-03T00:43:01;100835.16;;;2.41;65.10
78483;BME280;67772;50.158;8.658;2023-03-03T00:45:33;100825.84;;;2.38;65.95
78483;BME280;67772;50.158;8.658;2023-03-03T00:48:19;100827.38;;;2.33;65.74
78483;BME280;67772;50.158;8.658;2023-03-03T00:50:45;100820.47;;;2.32;66.44
78483;BME280;67772;50.158;8.658;2023-03-03T00:53:13;100829.72;;;2.28;66.37
78483;BME280;67772;50.158;8.658;2023-03-03T00:55:41;100838.88;;;2.32;66.79
78483;BME280;67772;50.158;8.658;2023-03-03T00:58:07;100833.28;;;2.35;66.60
78483;BME280;67772;50.158;8.658;2023-03-03T01:00:34;100832.09;;;2.37;66.33
78483;BME280;67772;50.158;8.658;2023-03-03T01:03:05;100823.09;;;2.32;66.56
78483;BME280;67772;50.158;8.658;2023-03-03T01:05:32;100826.25;;;2.27;66.90
78483;BME280;67772;50.158;8.658;2023-03-03T01:07:57;100834.41;;;2.18;67.51
78483;BME280;67772;50.158;8.658;2023-03-03T01:10:23;100831.88;;;2.24;67.45
78483;BME280;67772;50.158;8.658;2023-03-03T01:12:49;100831.13;;;2.16;67.62
78483;BME280;67772;50.158;8.658;2023-03-03T01:15:15;100832.78;;;2.17;68.13
78483;BME280;67772;50.158;8.658;2023-03-03T01:17:41;100837.75;;;2.12;67.84
78483;BME280;67772;50.158;8.658;2023-03-03T01:20:08;100823.94;;;2.10;68.41
78483;BME280;67772;50.158;8.658;2023-03-03T01:22:34;100827.34;;;2.18;68.20
78483;BME280;67772;50.158;8.658;2023-03-03T01:25:00;100830.84;;;2.11;68.32
78483;BME280;67772;50.158;8.658;2023-03-03T01:27:28;100825.03;;;2.01;68.46
78483;BME280;67772;50.158;8.658;2023-03-03T01:29:53;100831.16;;;1.93;69.47
78483;BME280;67772;50.158;8.658;2023-03-03T01:32:20;100828.53;;;1.93;69.74
78483;BME280;67772;50.158;8.658;2023-03-03T01:34:45;100819.53;;;1.88;69.54
78483;BME280;67772;50.158;8.658;2023-03-03T01:37:11;100822.81;;;1.90;69.46
78483;BME280;67772;50.158;8.658;2023-03-03T01:39:36;100816.16;;;2.02;69.19
78483;BME280;67772;50.158;8.658;2023-03-03T01:42:02;100822.44;;;1.93;69.90
78483;BME280;67772;50.158;8.658;2023-03-03T01:44:28;100818.06;;;1.85;69.89
78483;BME280;67772;50.158;8.658;2023-03-03T01:46:56;100831.41;;;1.84;70.25
78483;BME280;67772;50.158;8.658;2023-03-03T01:49:28;100823.16;;;1.87;70.06
78483;BME280;67772;50.158;8.658;2023-03-03T01:51:57;100818.34;;;1.90;69.71
78483;BME280;67772;50.158;8.658;2023-03-03T01:54:30;100820.72;;;1.85;70.07
78483;BME280;67772;50.158;8.658;2023-03-03T01:57:00;100821.88;;;1.83;70.31
78483;BME280;67772;50.158;8.658;2023-03-03T01:59:33;100817.69;;;1.73;70.92
78483;BME280;67772;50.158;8.658;2023-03-03T02:02:01;100809.13;;;1.71;70.65
78483;BME280;67772;50.158;8.658;2023-03-03T02:04:27;100811.72;;;1.79;70.74
78483;BME280;67772;50.158;8.658;2023-03-03T02:06:59;100808.44;;;1.77;69.97
78483;BME280;67772;50.158;8.658;2023-03-03T02:09:33;100804.81;;;1.78;70.66
78483;BME280;67772;50.158;8.658;2023-03-03T02:12:07;100801.06;;;1.73;70.61
78483;BME280;67772;50.158;8.658;2023-03-03T02:14:33;100800.47;;;1.63;71.28
78483;BME280;67772;50.158;8.658;2023-03-03T02:16:59;100805.28;;;1.59;71.65
78483;BME280;67772;50.158;8.658;2023-03-03T02:19:50;100805.66;;;1.56;71.79
78483;BME280;67772;50.158;8.658;2023-03-03T02:22:21;100804.59;;;1.65;71.26
78483;BME280;67772;50.158;8.658;2023-03-03T02:24:50;100806.56;;;1.63;71.38
78483;BME280;67772;50.158;8.658;2023-03-03T02:27:18;100812.34;;;1.59;71.66
78483;BME280;67772;50.158;8.658;2023-03-03T02:29:43;100804.94;;;1.62;71.96
78483;BME280;67772;50.158;8.658;2023-03-03T02:32:09;100810.03;;;1.64;71.69
78483;BME280;67772;50.158;8.658;2023-03-03T02:34:52;100815.47;;;1.62;71.54
78483;BME280;67772;50.158;8.658;2023-03-03T02:37:18;100817.91;;;1.64;71.53
78483;BME280;67772;50.158;8.658;2023-03-03T02:39:45;100815.16;;;1.57;72.34
78483;BME280;67772;50.158;8.658;2023-03-03T02:42:29;100821.22;;;1.58;71.76
78483;BME280;67772;50.158;8.658;2023-03-03T02:44:55;100820.78;;;1.54;72.32
78483;BME280;67772;50.158;8.658;2023-03-03T02:47:21;100814.56;;;1.47;72.50
78483;BME280;67772;50.158;8.658;2023-03-03T02:49:46;100829.53;;;1.47;72.22
78483;BME280;67772;50.158;8.658;2023-03-03T02:52:12;100825.91;;;1.48;72.65
78483;BME280;67772;50.158;8.658;2023-03-03T02:54:39;100823.50;;;1.38;72.78
78483;BME280;67772;50.158;8.658;2023-03-03T02:57:05;100819.91;;;1.31;73.26
78483;BME280;67772;50.158;8.658;2023-03-03T02:59:31;100817.78;;;1.35;73.42
78483;BME280;67772;50.158;8.658;2023-03-03T03:01:56;100818.25;;;1.38;72.91
78483;BME280;67772;50.158;8.658;2023-03-03T03:04:24;100817.63;;;1.28;73.58
78483;BME280;67772;50.158;8.658;2023-03-03T03:06:50;100814.34;;;1.26;74.11
78483;BME280;67772;50.158;8.658;2023-03-03T03:09:17;100818.97;;;1.24;73.64
78483;BME280;67772;50.158;8.658;2023-03-03T03:11:43;100816.00;;;1.27;73.03
78483;BME280;67772;50.158;8.658;2023-03-03T03:14:10;100824.56;;;1.21;73.75
78483;BME280;67772;50.158;8.658;2023-03-03T03:16:36;100826.19;;;1.22;73.81
78483;BME280;67772;50.158;8.658;2023-03-03T03:19:02;100815.66;;;1.30;73.81
78483;BME280;67772;50.158;8.658;2023-03-03T03:21:28;100822.59;;;1.23;74.01
78483;BME280;67772;50.158;8.658;2023-03-03T03:23:54;100820.94;;;1.22;74.02
78483;BME280;67772;50.158;8.658;2023-03-03T03:26:20;100812.59;;;1.19;74.05
78483;BME280;67772;50.158;8.658;2023-03-03T03:28:46;100822.97;;;1.12;74.24
78483;BME280;67772;50.158;8.658;2023-03-03T03:31:12;100818.03;;;1.17;74.01
78483;BME280;67772;50.158;8.658;2023-03-03T03:33:37;100817.06;;;1.10;74.31
78483;BME280;67772;50.158;8.658;2023-03-03T03:36:03;100824.16;;;1.10;74.51
78483;BME280;67772;50.158;8.658;2023-03-03T03:38:31;100821.19;;;1.05;74.55
78483;BME280;67772;50.158;8.658;2023-03-03T03:40:57;100827.56;;;1.10;74.06
78483;BME280;67772;50.158;8.658;2023-03-03T03:43:23;100837.44;;;1.08;74.39
78483;BME280;67772;50.158;8.658;2023-03-03T03:45:48;100831.38;;;1.08;74.50
78483;BME280;67772;50.158;8.658;2023-03-03T03:48:14;100843.97;;;1.12;74.10
78483;BME280;67772;50.158;8.658;2023-03-03T03:50:40;100833.69;;;1.03;74.33
78483;BME280;67772;50.158;8.658;2023-03-03T03:53:06;100840.38;;;1.13;74.77
78483;BME280;67772;50.158;8.658;2023-03-03T03:55:32;100834.97;;;1.07;74.47
78483;BME280;67772;50.158;8.658;2023-03-03T03:57:57;100832.16;;;1.08;74.17
78483;BME280;67772;50.158;8.658;2023-03-03T04:00:23;100834.97;;;1.07;74.75
78483;BME280;67772;50.158;8.658;2023-03-03T04:02:49;100835.97;;;1.06;74.23
78483;BME280;67772;50.158;8.658;2023-03-03T04:05:14;100836.34;;;0.95;74.60
78483;BME280;67772;50.158;8.658;2023-03-03T04:07:40;100839.97;;;0.94;75.20
78483;BME280;67772;50.158;8.658;2023-03-03T04:10:05;100838.13;;;0.94;75.06
78483;BME280;67772;50.158;8.658;2023-03-03T04:12:31;100837.47;;;0.92;75.35
78483;BME280;67772;50.158;8.658;2023-03-03T04:15:04;100841.75;;;1.01;74.82
78483;BME280;67772;50.158;8.658;2023-03-03T04:17:30;100843.88;;;0.98;75.14
78483;BME280;67772;50.158;8.658;2023-03-03T04:19:55;100854.53;;;0.96;75.53
78483;BME280;67772;50.158;8.658;2023-03-03T04:22:20;100850.94;;;0.97;75.82
78483;BME280;67772;50.158;8.658;2023-03-03T04:24:46;100845.69;;;0.97;75.44
78483;BME280;67772;50.158;8.658;2023-03-03T04:27:12;100840.63;;;0.96;76.19
78483;BME280;67772;50.158;8.658;2023-03-03T04:29:38;100844.75;;;0.90;75.90
78483;BME280;67772;50.158;8.658;2023-03-03T04:32:04;100852.94;;;0.87;75.83
78483;BME280;67772;50.158;8.658;2023-03-03T04:34:29;100852.66;;;0.82;76.20
78483;BME280;67772;50.158;8.658;2023-03-03T04:36:54;100848.03;;;0.84;75.72
78483;BME280;67772;50.158;8.658;2023-03-03T04:39:20;100840.63;;;0.87;75.83
78483;BME280;67772;50.158;8.658;2023-03-03T04:41:45;100842.94;;;0.82;76.13
78483;BME280;67772;50.158;8.658;2023-03-03T04:44:10;100850.69;;;0.76;76.92
78483;BME280;67772;50.158;8.658;2023-03-03T04:46:35;100851.00;;;0.73;76.70
78483;BME280;67772;50.158;8.658;2023-03-03T04:49:01;100848.03;;;0.84;75.92
78483;BME280;67772;50.158;8.658;2023-03-03T04:51:27;100842.44;;;0.87;75.87
78483;BME280;67772;50.158;8.658;2023-03-03T04:53:53;100853.81;;;0.71;76.75
78483;BME280;67772;50.158;8.658;2023-03-03T04:56:18;100851.66;;;0.75;76.00
78483;BME280;67772;50.158;8.658;2023-03-03T04:58:43;100850.72;;;0.68;76.64
78483;BME280;67772;50.158;8.658;2023-03-03T05:01:12;100857.94;;;0.66;76.62
78483;BME280;67772;50.158;8.658;2023-03-03T05:03:38;100861.22;;;0.68;76.42
78483;BME280;67772;50.158;8.658;2023-03-03T05:06:04;100870.06;;;0.59;76.55
78483;BME280;67772;50.158;8.658;2023-03-03T05:08:29;100873.69;;;0.50;77.02
78483;BME280;67772;50.158;8.658;2023-03-03T05:10:55;100874.03;;;0.55;76.65
78483;BME280;67772;50.158;8.658;2023-03-03T05:13:20;100880.59;;;0.51;76.88
78483;BME280;67772;50.158;8.658;2023-03-03T05:15:50;100879.28;;;0.47;77.68
78483;BME280;67772;50.158;8.658;2023-03-03T05:18:18;100876.66;;;0.55;77.09
78483;BME280;67772;50.158;8.658;2023-03-03T05:20:43;100880.63;;;0.35;77.86
78483;BME280;67772;50.158;8.658;2023-03-03T05:23:09;100882.91;;;0.22;78.62
78483;BME280;67772;50.158;8.658;2023-03-03T05:25:34;100883.06;;;0.20;78.70
78483;BME280;67772;50.158;8.658;2023-03-03T05:27:59;100879.78;;;0.26;78.39
78483;BME280;67772;50.158;8.658;2023-03-03T05:30:25;100886.84;;;0.18;78.89
78483;BME280;67772;50.158;8.658;2023-03-03T05:32:50;100889.13;;;0.13;79.32
78483;BME280;67772;50.158;8.658;2023-03-03T05:35:15;100880.28;;;0.22;78.06
78483;BME280;67772;50.158;8.658;2023-03-03T05:37:41;100887.47;;;0.20;78.77
78483;BME280;67772;50.158;8.658;2023-03-03T05:40:12;100883.56;;;0.08;79.52
78483;BME280;67772;50.158;8.658;2023-03-03T05:42:37;100885.88;;;0.19;79.31
78483;BME280;67772;50.158;8.658;2023-03-03T05:45:02;100879.00;;;0.18;78.58
78483;BME280;67772;50.158;8.658;2023-03-03T05:47:28;100883.56;;;0.08;79.29
78483;BME280;67772;50.158;8.658;2023-03-03T05:49:53;100889.63;;;0.08;79.44
78483;BME280;67772;50.158;8.658;2023-03-03T05:52:18;100894.22;;;0.14;79.54
78483;BME280;67772;50.158;8.658;2023-03-03T05:54:44;100889.47;;;0.18;79.31
78483;BME280;67772;50.158;8.658;2023-03-03T05:57:09;100897.00;;;0.13;79.27
78483;BME280;67772;50.158;8.658;2023-03-03T05:59:34;100901.28;;;0.06;79.44
78483;BME280;67772;50.158;8.658;2023-03-03T06:02:00;100905.22;;;0.18;79.19
78483;BME280;67772;50.158;8.658;2023-03-03T06:04:25;100910.44;;;0.34;78.59
78483;BME280;67772;50.158;8.658;2023-03-03T06:06:50;100916.50;;;0.18;79.42
78483;BME280;67772;50.158;8.658;2023-03-03T06:09:15;100919.47;;;0.23;79.26
78483;BME280;67772;50.158;8.658;2023-03-03T06:11:43;100922.91;;;0.16;80.09
78483;BME280;67772;50.158;8.658;2023-03-03T06:14:08;100922.91;;;0.32;79.51
78483;BME280;67772;50.158;8.658;2023-03-03T06:16:33;100924.03;;;0.45;78.87
78483;BME280;67772;50.158;8.658;2023-03-03T06:18:59;100936.69;;;0.42;78.25
78483;BME280;67772;50.158;8.658;2023-03-03T06:21:25;100931.13;;;0.45;78.54
78483;BME280;67772;50.158;8.658;2023-03-03T06:23:50;100934.06;;;0.50;78.14
78483;BME280;67772;50.158;8.658;2023-03-03T06:26:16;100941.94;;;0.58;77.52
78483;BME280;67772;50.158;8.658;2023-03-03T06:28:41;100941.09;;;0.57;77.40
78483;BME280;67772;50.158;8.658;2023-03-03T06:31:06;100941.59;;;0.69;77.39
78483;BME280;67772;50.158;8.658;2023-03-03T06:33:32;100938.81;;;0.70;76.81
78483;BME280;67772;50.158;8.658;2023-03-03T06:35:57;100944.38;;;0.59;77.21
78483;BME280;67772;50.158;8.658;2023-03-03T06:38:23;100943.06;;;0.55;77.39
78483;BME280;67772;50.158;8.658;2023-03-03T06:40:48;100953.25;;;0.58;77.44
78483;BME280;67772;50.158;8.658;2023-03-03T06:43:14;100954.41;;;0.64;77.15
78483;BME280;67772;50.158;8.658;2023-03-03T06:45:39;100966.53;;;0.65;77.29
78483;BME280;67772;50.158;8.658;2023-03-03T06:48:05;100963.59;;;0.76;76.66
78483;BME280;67772;50.158;8.658;2023-03-03T06:50:30;100963.41;;;0.85;76.15
78483;BME280;67772;50.158;8.658;2023-03-03T06:53:05;100967.81;;;0.85;76.46
78483;BME280;67772;50.158;8.658;2023-03-03T06:55:31;100969.78;;;0.91;75.88
78483;BME280;67772;50.158;8.658;2023-03-03T06:57:58;100975.28;;;1.28;74.72
78483;BME280;67772;50.158;8.658;2023-03-03T07:00:25;100981.50;;;1.35;74.87
78483;BME280;67772;50.158;8.658;2023-03-03T07:03:14;100985.13;;;1.34;74.70
78483;BME280;67772;50.158;8.658;2023-03-03T07:05:40;100984.59;;;1.47;73.98
78483;BME280;67772;50.158;8.658;2023-03-03T07:08:13;100984.13;;;1.35;75.30
78483;BME280;67772;50.158;8.658;2023-03-03T07:10:39;100988.22;;;1.46;74.31
78483;BME280;67772;50.158;8.658;2023-03-03T07:15:49;101008.31;;;1.77;73.61
78483;BME280;67772;50.158;8.658;2023-03-03T07:23:40;101013.66;;;1.92;72.58
78483;BME280;67772;50.158;8.658;2023-03-03T07:26:24;101012.81;;;2.00;72.07
78483;BME280;67772;50.158;8.658;2023-03-03T07:28:57;101022.03;;;1.96;72.61
78483;BME280;67772;50.158;8.658;2023-03-03T07:34:01;101025.59;;;2.03;72.34
78483;BME280;67772;50.158;8.658;2023-03-03T07:36:34;101033.63;;;2.09;72.60
78483;BME280;67772;50.158;8.658;2023-03-03T07:39:01;101035.78;;;2.06;72.17
78483;BME280;67772;50.158;8.658;2023-03-03T07:41:29;101036.69;;;2.21;71.82
78483;BME280;67772;50.158;8.658;2023-03-03T07:44:00;101029.91;;;2.26;72.02
78483;BME280;67772;50.158;8.658;2023-03-03T07:46:46;101043.28;;;2.47;71.23
78483;BME280;67772;50.158;8.658;2023-03-03T07:49:34;101052.63;;;2.50;71.07
78483;BME280;67772;50.158;8.658;2023-03-03T07:52:15;101062.06;;;2.44;71.15
78483;BME280;67772;50.158;8.658;2023-03-03T07:54:42;101057.53;;;2.53;71.63
78483;BME280;67772;50.158;8.658;2023-03-03T07:57:34;101046.31;;;2.59;70.68
78483;BME280;67772;50.158;8.658;2023-03-03T08:00:04;101055.97;;;2.66;69.55
78483;BME280;67772;50.158;8.658;2023-03-03T08:07:52;101057.78;;;2.89;68.80
78483;BME280;67772;50.158;8.658;2023-03-03T08:13:22;101061.25;;;3.26;66.94
78483;BME280;67772;50.158;8.658;2023-03-03T08:16:03;101070.94;;;3.48;66.30
78483;BME280;67772;50.158;8.658;2023-03-03T08:18:47;101058.56;;;3.64;65.88
78483;BME280;67772;50.158;8.658;2023-03-03T08:21:24;101058.91;;;3.90;64.78
78483;BME280;67772;50.158;8.658;2023-03-03T08:23:50;101058.34;;;4.09;64.22
78483;BME280;67772;50.158;8.658;2023-03-03T08:26:18;101057.63;;;4.00;64.27
78483;BME280;67772;50.158;8.658;2023-03-03T08:28:44;101056.50;;;4.24;63.58
78483;BME280;67772;50.158;8.658;2023-03-03T08:31:10;101061.31;;;4.56;62.50
78483;BME280;67772;50.158;8.658;2023-03-03T08:33:36;101062.13;;;4.99;61.23
78483;BME280;67772;50.158;8.658;2023-03-03T08:36:01;101053.31;;;5.75;58.24
78483;BME280;67772;50.158;8.658;2023-03-03T08:38:27;101063.66;;;6.04;56.40
78483;BME280;67772;50.158;8.658;2023-03-03T08:40:52;101057.09;;;6.47;55.67
78483;BME280;67772;50.158;8.658;2023-03-03T08:43:18;101054.91;;;7.55;52.14
78483;BME280;67772;50.158;8.658;2023-03-03T08:45:50;101062.94;;;8.06;49.84
78483;BME280;67772;50.158;8.658;2023-03-03T08:48:15;101059.09;;;8.46;48.59
78483;BME280;67772;50.158;8.658;2023-03-03T08:50:41;101066.38;;;9.20;47.19
78483;BME280;67772;50.158;8.658;2023-03-03T08:53:07;101061.81;;;9.27;46.88
78483;BME280;67772;50.158;8.658;2023-03-03T08:55:33;101066.44;;;8.57;47.61
78483;BME280;67772;50.158;8.658;2023-03-03T08:57:58;101071.78;;;8.44;48.10
78483;BME280;67772;50.158;8.658;2023-03-03T09:00:24;101071.31;;;8.60;48.06
78483;BME280;67772;50.158;8.658;2023-03-03T09:02:51;101070.72;;;9.39;46.04
78483;BME280;67772;50.158;8.658;2023-03-03T09:05:18;101065.03;;;9.96;45.09
78483;BME280;67772;50.158;8.658;2023-03-03T09:07:46;101062.91;;;9.62;44.94
78483;BME280;67772;50.158;8.658;2023-03-03T09:10:15;101080.53;;;9.81;44.53
78483;BME280;67772;50.158;8.658;2023-03-03T09:12:43;101071.88;;;10.10;43.69
78483;BME280;67772;50.158;8.658;2023-03-03T09:15:35;101067.31;;;12.27;39.62
78483;BME280;67772;50.158;8.658;2023-03-03T09:20:45;101065.72;;;14.52;33.74
78483;BME280;67772;50.158;8.658;2023-03-03T09:23:29;101066.88;;;15.92;31.52
78483;BME280;67772;50.158;8.658;2023-03-03T09:25:57;101066.66;;;15.52;31.18
78483;BME280;67772;50.158;8.658;2023-03-03T09:28:27;101074.28;;;15.70;30.95
78483;BME280;67772;50.158;8.658;2023-03-03T09:30:54;101075.78;;;14.18;33.77
78483;BME280;67772;50.158;8.658;2023-03-03T09:35:53;101083.41;;;13.50;34.99
78483;BME280;67772;50.158;8.658;2023-03-03T09:38:31;101072.41;;;14.06;33.78
78483;BME280;67772;50.158;8.658;2023-03-03T09:46:51;101092.78;;;13.85;34.60
78483;BME280;67772;50.158;8.658;2023-03-03T09:49:33;101091.84;;;13.08;36.44
78483;BME280;67772;50.158;8.658;2023-03-03T09:57:41;101091.22;;;15.34;30.38
78483;BME280;67772;50.158;8.658;2023-03-03T10:10:56;101099.59;;;22.33;20.53
78483;BME280;67772;50.158;8.658;2023-03-03T10:13:42;101096.50;;;23.55;19.37
78483;BME280;67772;50.158;8.658;2023-03-03T10:16:43;101102.22;;;24.63;18.44
78483;BME280;67772;50.158;8.658;2023-03-03T10:24:54;101116.97;;;25.30;16.83
78483;BME280;67772;50.158;8.658;2023-03-03T10:30:20;101122.78;;;25.46;17.17
78483;BME280;67772;50.158;8.658;2023-03-03T10:33:08;101113.13;;;26.41;16.11
78483;BME280;67772;50.158;8.658;2023-03-03T10:38:20;101119.09;;;28.39;14.11
78483;BME280;67772;50.158;8.658;2023-03-03T10:49:13;101115.03;;;27.10;15.10
78483;BME280;67772;50.158;8.658;2023-03-03T10:57:35;101118.59;;;25.48;15.93
78483;BME280;67772;50.158;8.658;2023-03-03T11:05:47;101104.19;;;29.31;13.07
78483;BME280;67772;50.158;8.658;2023-03-03T11:08:26;101109.50;;;28.84;13.21
78483;BME280;67772;50.158;8.658;2023-03-03T11:13:54;101113.97;;;27.03;14.78
78483;BME280;67772;50.158;8.658;2023-03-03T11:16:36;101104.13;;;25.22;15.85
78483;BME280;67772;50.158;8.658;2023-03-03T11:29:59;101086.91;;;28.51;13.54
78483;BME280;67772;50.158;8.658;2023-03-03T11:32:53;101087.16;;;28.58;13.79
78483;BME280;67772;50.158;8.658;2023-03-03T11:43:31;101069.16;;;26.87;14.95
78483;BME280;67772;50.158;8.658;2023-03-03T11:45:59;101068.63;;;28.43;13.87
78483;BME280;67772;50.158;8.658;2023-03-03T11:48:51;101069.53;;;27.30;14.51
78483;BME280;67772;50.158;8.658;2023-03-03T11:54:04;101059.97;;;29.36;13.33
78483;BME280;67772;50.158;8.658;2023-03-03T11:56:34;101063.13;;;28.43;13.51
78483;BME280;67772;50.158;8.658;2023-03-03T11:59:19;101048.47;;;29.62;12.49
78483;BME280;67772;50.158;8.658;2023-03-03T12:05:02;101050.28;;;30.55;11.88
78483;BME280;67772;50.158;8.658;2023-03-03T12:12:38;101041.06;;;28.40;13.90
78483;BME280;67772;50.158;8.658;2023-03-03T12:15:28;101035.22;;;29.99;12.55
78483;BME280;67772;50.158;8.658;2023-03-03T12:21:09;101027.63;;;30.27;12.17
78483;BME280;67772;50.158;8.658;2023-03-03T12:23:55;101024.28;;;28.81;13.01
78483;BME280;67772;50.158;8.658;2023-03-03T12:29:13;101004.72;;;30.38;12.23
78483;BME280;67772;50.158;8.658;2023-03-03T12:37:07;100999.00;;;28.75;13.48
78483;BME280;67772;50.158;8.658;2023-03-03T12:39:41;100995.16;;;28.25;14.29
78483;BME280;67772;50.158;8.658;2023-03-03T12:42:23;101006.06;;;26.21;15.14
78483;BME280;67772;50.158;8.658;2023-03-03T12:47:40;101015.72;;;22.75;18.66
78483;BME280;67772;50.158;8.658;2023-03-03T12:52:53;101021.25;;;20.19;22.32
78483;BME280;67772;50.158;8.658;2023-03-03T13:03:51;100995.00;;;20.15;23.25
78483;BME280;67772;50.158;8.658;2023-03-03T13:06:28;100990.03;;;18.26;25.24
78483;BME280;67772;50.158;8.658;2023-03-03T13:11:47;100981.28;;;15.84;28.90
78483;BME280;67772;50.158;8.658;2023-03-03T13:14:22;100985.59;;;14.97;30.13
78483;BME280;67772;50.158;8.658;2023-03-03T13:20:02;100981.31;;;14.16;32.38
78483;BME280;67772;50.158;8.658;2023-03-03T13:22:47;100977.31;;;13.32;34.11
78483;BME280;67772;50.158;8.658;2023-03-03T13:28:21;100971.94;;;12.66;35.20
78483;BME280;67772;50.158;8.658;2023-03-03T13:30:56;100967.34;;;13.11;35.05
78483;BME280;67772;50.158;8.658;2023-03-03T13:33:27;100961.84;;;12.84;35.33
78483;BME280;67772;50.158;8.658;2023-03-03T13:35:57;100967.50;;;12.71;35.58
78483;BME280;67772;50.158;8.658;2023-03-03T13:38:30;100962.97;;;12.27;35.48
78483;BME280;67772;50.158;8.658;2023-03-03T13:41:04;100964.22;;;11.80;36.57
78483;BME280;67772;50.158;8.658;2023-03-03T13:43:37;100964.00;;;11.58;37.04
78483;BME280;67772;50.158;8.658;2023-03-03T13:46:24;100965.72;;;11.64;37.38
78483;BME280;67772;50.158;8.658;2023-03-03T13:49:04;100963.66;;;11.66;37.91
78483;BME280;67772;50.158;8.658;2023-03-03T14:01:55;100949.97;;;11.28;38.47
78483;BME280;67772;50.158;8.658;2023-03-03T14:07:01;100947.06;;;10.83;39.53
78483;BME280;67772;50.158;8.658;2023-03-03T14:09:37;100938.97;;;10.78;40.12
78483;BME280;67772;50.158;8.658;2023-03-03T14:20:23;100936.97;;;10.97;40.17
78483;BME280;67772;50.158;8.658;2023-03-03T14:23:00;100941.97;;;10.70;39.88
78483;BME280;67772;50.158;8.658;2023-03-03T14:25:26;100938.03;;;10.61;39.48
78483;BME280;67772;50.158;8.658;2023-03-03T14:28:11;100943.19;;;10.44;39.87
78483;BME280;67772;50.158;8.658;2023-03-03T14:30:42;100943.38;;;10.20;40.49
78483;BME280;67772;50.158;8.658;2023-03-03T14:35:38;100930.19;;;10.36;40.13
78483;BME280;67772;50.158;8.658;2023-03-03T14:40:35;100930.41;;;10.23;41.59
78483;BME280;67772;50.158;8.658;2023-03-03T14:43:05;100935.44;;;10.13;41.85
78483;BME280;67772;50.158;8.658;2023-03-03T14:45:42;100938.41;;;10.05;41.75
78483;BME280;67772;50.158;8.658;2023-03-03T14:50:52;100932.78;;;10.13;41.92
78483;BME280;67772;50.158;8.658;2023-03-03T14:55:45;100934.19;;;10.16;42.12
78483;BME280;67772;50.158;8.658;2023-03-03T15:01:14;100926.06;;;10.11;41.49
78483;BME280;67772;50.158;8.658;2023-03-03T15:03:46;100928.66;;;9.99;41.97
78483;BME280;67772;50.158;8.658;2023-03-03T15:11:54;100918.38;;;9.55;42.52
78483;BME280;67772;50.158;8.658;2023-03-03T15:14:25;100914.53;;;9.33;42.99
78483;BME280;67772;50.158;8.658;2023-03-03T15:16:55;100924.28;;;9.21;43.43
78483;BME280;67772;50.158;8.658;2023-03-03T15:19:36;100929.59;;;9.21;43.71
78483;BME280;67772;50.158;8.658;2023-03-03T15:22:19;100927.03;;;8.89;44.46
78483;BME280;67772;50.158;8.658;2023-03-03T15:25:10;100921.97;;;8.63;44.14
78483;BME280;67772;50.158;8.658;2023-03-03T15:27:44;100925.94;;;8.79;44.54
78483;BME280;67772;50.158;8.658;2023-03-03T15:33:04;100929.22;;;8.50;45.57
78483;BME280;67772;50.158;8.658;2023-03-03T15:38:26;100924.94;;;8.49;46.33
78483;BME280;67772;50.158;8.658;2023-03-03T15:46:05;100927.16;;;8.52;45.16
78483;BME280;67772;50.158;8.658;2023-03-03T15:56:57;100930.84;;;8.20;47.27
78483;BME280;67772;50.158;8.658;2023-03-03T16:13:22;100937.53;;;7.91;46.46
78483;BME280;67772;50.158;8.658;2023-03-03T16:15:55;100941.25;;;7.83;47.85
78483;BME280;67772;50.158;8.658;2023-03-03T16:30:32;100939.78;;;7.37;49.12
78483;BME280;67772;50.158;8.658;2023-03-03T16:38:37;100945.56;;;7.07;50.33
78483;BME280;67772;50.158;8.658;2023-03-03T16:41:09;100938.25;;;6.96;50.82
78483;BME280;67772;50.158;8.658;2023-03-03T16:44:03;100944.78;;;6.87;51.30
78483;BME280;67772;50.158;8.658;2023-03-03T16:46:40;100943.75;;;6.82;51.59
78483;BME280;67772;50.158;8.658;2023-03-03T16:49:19;100943.38;;;6.65;51.63
78483;BME280;67772;50.158;8.658;2023-03-03T16:51:55;100952.75;;;6.61;52.39
78483;BME280;67772;50.158;8.658;2023-03-03T17:05:07;100965.09;;;6.15;53.58
78483;BME280;67772;50.158;8.658;2023-03-03T17:10:31;100971.19;;;6.02;54.20
78483;BME280;67772;50.158;8.658;2023-03-03T17:13:10;100971.09;;;5.83;54.65
78483;BME280;67772;50.158;8.658;2023-03-03T17:21:09;100986.47;;;5.66;55.28
78483;BME280;67772;50.158;8.658;2023-03-03T17:26:22;100986.47;;;5.60;55.30
78483;BME280;67772;50.158;8.658;2023-03-03T17:40:23;101013.06;;;5.17;56.72
78483;BME280;67772;50.158;8.658;2023-03-03T17:43:04;101014.03;;;5.10;56.46
78483;BME280;67772;50.158;8.658;2023-03-03T17:45:38;101014.97;;;5.02;56.90